sensor_id;sensor_type;location;lat;lon;timestamp;pressure;altitude;pressure_sealevel;temperature;humidity
69411;BME280;56604;48.652;9.194;2023-06-10T00:00:36;95873.50;;;18.69;54.71
69411;BME280;56604;48.652;9.194;2023-06-10T00:03:02;95874.13;;;18.66;54.98
69411;BME280;56604;48.652;9.194;2023-06-10T00:05:27;95871.94;;;18.68;55.04
69411;BME280;56604;48.652;9.194;2023-06-10T00:07:55;95871.59;;;18.61;55.09
69411;BME280;56604;48.652;9.194;2023-06-10T00:10:21;95870.66;;;18.57;55.50
69411;BME280;56604;48.652;9.194;2023-06-10T00:12:46;95870.31;;;18.50;55.64
69411;BME280;56604;48.652;9.194;2023-06-10T00:15:12;95872.03;;;18.46;55.82
69411;BME280;56604;48.652;9.194;2023-06-10T00:17:37;95876.25;;;18.47;56.37
69411;BME280;56604;48.652;9.194;2023-06-10T00:20:06;95868.88;;;18.43;55.62
69411;BME280;56604;48.652;9.194;2023-06-10T00:22:34;95867.81;;;18.45;56.31
69411;BME280;56604;48.652;9.194;2023-06-10T00:24:59;95860.16;;;18.52;56.14
69411;BME280;56604;48.652;9.194;2023-06-10T00:27:25;95861.09;;;18.56;55.74
69411;BME280;56604;48.652;9.194;2023-06-10T00:29:56;95869.72;;;18.53;55.93
69411;BME280;56604;48.652;9.194;2023-06-10T00:32:21;95864.19;;;18.49;56.47
69411;BME280;56604;48.652;9.194;2023-06-10T00:34:46;95869.38;;;18.46;56.97
69411;BME280;56604;48.652;9.194;2023-06-10T00:37:12;95865.44;;;18.43;56.59
69411;BME280;56604;48.652;9.194;2023-06-10T00:39:38;95861.50;;;18.40;56.50
69411;BME280;56604;48.652;9.194;2023-06-10T00:42:04;95864.31;;;18.35;57.05
69411;BME280;56604;48.652;9.194;2023-06-10T00:44:32;95855.69;;;18.30;57.35
69411;BME280;56604;48.652;9.194;2023-06-10T00:46:57;95861.44;;;18.23;57.78
69411;BME280;56604;48.652;9.194;2023-06-10T00:49:22;95869.56;;;18.18;58.10
69411;BME280;56604;48.652;9.194;2023-06-10T00:51:48;95861.72;;;18.13;58.29
69411;BME280;56604;48.652;9.194;2023-06-10T00:54:13;95853.28;;;18.11;58.48
69411;BME280;56604;48.652;9.194;2023-06-10T00:56:39;95858.72;;;18.06;58.52
69411;BME280;56604;48.652;9.194;2023-06-10T00:59:04;95863.56;;;18.04;58.72
69411;BME280;56604;48.652;9.194;2023-06-10T01:01:29;95862.91;;;17.98;58.59
69411;BME280;56604;48.652;9.194;2023-06-10T01:03:55;95858.19;;;17.95;59.03
69411;BME280;56604;48.652;9.194;2023-06-10T01:06:39;95866.94;;;17.95;59.39
69411;BME280;56604;48.652;9.194;2023-06-10T01:09:23;95863.03;;;17.93;59.96
69411;BME280;56604;48.652;9.194;2023-06-10T01:14:40;95857.41;;;17.72;60.22
69411;BME280;56604;48.652;9.194;2023-06-10T01:17:10;95860.16;;;17.81;60.03
69411;BME280;56604;48.652;9.194;2023-06-10T01:19:36;95854.63;;;17.77;60.33
69411;BME280;56604;48.652;9.194;2023-06-10T01:22:02;95856.50;;;17.76;60.38
69411;BME280;56604;48.652;9.194;2023-06-10T01:24:28;95858.03;;;17.69;60.85
69411;BME280;56604;48.652;9.194;2023-06-10T01:26:55;95850.16;;;17.64;61.23
69411;BME280;56604;48.652;9.194;2023-06-10T01:29:37;95840.50;;;17.68;61.14
69411;BME280;56604;48.652;9.194;2023-06-10T01:32:14;95841.56;;;17.67;61.12
69411;BME280;56604;48.652;9.194;2023-06-10T01:34:42;95844.22;;;17.67;61.25
69411;BME280;56604;48.652;9.194;2023-06-10T01:37:11;95843.78;;;17.65;61.43
69411;BME280;56604;48.652;9.194;2023-06-10T01:39:39;95852.69;;;17.69;61.17
69411;BME280;56604;48.652;9.194;2023-06-10T01:42:05;95849.75;;;17.70;60.93
69411;BME280;56604;48.652;9.194;2023-06-10T01:44:31;95845.22;;;17.71;61.18
69411;BME280;56604;48.652;9.194;2023-06-10T01:46:57;95846.59;;;17.68;61.62
69411;BME280;56604;48.652;9.194;2023-06-10T01:49:22;95854.25;;;17.70;61.10
69411;BME280;56604;48.652;9.194;2023-06-10T01:51:49;95854.25;;;17.70;61.27
69411;BME280;56604;48.652;9.194;2023-06-10T01:54:14;95849.09;;;17.65;61.15
69411;BME280;56604;48.652;9.194;2023-06-10T01:56:40;95854.25;;;17.70;61.26
69411;BME280;56604;48.652;9.194;2023-06-10T01:59:05;95860.56;;;17.74;61.19
69411;BME280;56604;48.652;9.194;2023-06-10T02:01:31;95858.03;;;17.69;61.13
69411;BME280;56604;48.652;9.194;2023-06-10T02:03:56;95856.09;;;17.61;61.64
69411;BME280;56604;48.652;9.194;2023-06-10T02:06:21;95859.84;;;17.60;61.82
69411;BME280;56604;48.652;9.194;2023-06-10T02:08:47;95858.88;;;17.56;61.08
69411;BME280;56604;48.652;9.194;2023-06-10T02:11:12;95867.94;;;17.54;62.04
69411;BME280;56604;48.652;9.194;2023-06-10T02:13:40;95864.19;;;17.56;62.29
69411;BME280;56604;48.652;9.194;2023-06-10T02:16:06;95864.19;;;17.56;62.03
69411;BME280;56604;48.652;9.194;2023-06-10T02:18:31;95861.53;;;17.56;62.22
69411;BME280;56604;48.652;9.194;2023-06-10T02:20:57;95863.22;;;17.51;62.30
69411;BME280;56604;48.652;9.194;2023-06-10T02:23:23;95866.00;;;17.46;62.43
69411;BME280;56604;48.652;9.194;2023-06-10T02:25:48;95866.00;;;17.46;62.42
69411;BME280;56604;48.652;9.194;2023-06-10T02:28:14;95862.84;;;17.44;62.44
69411;BME280;56604;48.652;9.194;2023-06-10T02:30:42;95870.34;;;17.42;62.33
69411;BME280;56604;48.652;9.194;2023-06-10T02:33:08;95867.22;;;17.40;62.46
69411;BME280;56604;48.652;9.194;2023-06-10T02:35:39;95868.47;;;17.43;62.88
69411;BME280;56604;48.652;9.194;2023-06-10T02:38:05;95879.88;;;17.43;62.66
69411;BME280;56604;48.652;9.194;2023-06-10T02:40:30;95883.50;;;17.47;62.40
69411;BME280;56604;48.652;9.194;2023-06-10T02:42:56;95880.50;;;17.40;62.83
69411;BME280;56604;48.652;9.194;2023-06-10T02:45:22;95878.56;;;17.32;63.10
69411;BME280;56604;48.652;9.194;2023-06-10T02:47:47;95887.13;;;17.29;63.05
69411;BME280;56604;48.652;9.194;2023-06-10T02:50:12;95886.53;;;17.32;62.74
69411;BME280;56604;48.652;9.194;2023-06-10T02:52:38;95887.13;;;17.29;63.18
69411;BME280;56604;48.652;9.194;2023-06-10T02:55:03;95882.41;;;17.26;63.42
69411;BME280;56604;48.652;9.194;2023-06-10T02:57:29;95885.78;;;17.18;63.71
69411;BME280;56604;48.652;9.194;2023-06-10T02:59:54;95883.81;;;17.09;63.89
69411;BME280;56604;48.652;9.194;2023-06-10T03:02:20;95881.84;;;17.15;63.66
69411;BME280;56604;48.652;9.194;2023-06-10T03:04:45;95888.75;;;17.16;63.76
69411;BME280;56604;48.652;9.194;2023-06-10T03:07:10;95886.38;;;17.15;63.74
69411;BME280;56604;48.652;9.194;2023-06-10T03:09:36;95892.28;;;17.12;63.79
69411;BME280;56604;48.652;9.194;2023-06-10T03:12:02;95883.91;;;17.18;63.54
69411;BME280;56604;48.652;9.194;2023-06-10T03:14:27;95891.09;;;17.18;63.76
69411;BME280;56604;48.652;9.194;2023-06-10T03:16:53;95893.25;;;17.16;63.76
69411;BME280;56604;48.652;9.194;2023-06-10T03:19:18;95894.06;;;17.16;63.96
69411;BME280;56604;48.652;9.194;2023-06-10T03:21:44;95896.22;;;17.14;63.81
69411;BME280;56604;48.652;9.194;2023-06-10T03:24:10;95895.22;;;17.10;64.10
69411;BME280;56604;48.652;9.194;2023-06-10T03:26:36;95897.59;;;17.12;63.95
69411;BME280;56604;48.652;9.194;2023-06-10T03:29:01;95905.47;;;17.17;63.87
69411;BME280;56604;48.652;9.194;2023-06-10T03:31:26;95903.66;;;17.26;63.64
69411;BME280;56604;48.652;9.194;2023-06-10T03:33:52;95903.13;;;17.38;63.24
69411;BME280;56604;48.652;9.194;2023-06-10T03:36:17;95905.88;;;17.46;63.23
69411;BME280;56604;48.652;9.194;2023-06-10T03:38:42;95909.03;;;17.71;62.19
69411;BME280;56604;48.652;9.194;2023-06-10T03:41:07;95906.19;;;17.90;61.26
69411;BME280;56604;48.652;9.194;2023-06-10T03:43:33;95898.56;;;17.97;61.43
69411;BME280;56604;48.652;9.194;2023-06-10T03:45:59;95909.00;;;18.16;60.56
69411;BME280;56604;48.652;9.194;2023-06-10T03:48:24;95913.38;;;18.12;60.94
69411;BME280;56604;48.652;9.194;2023-06-10T03:50:49;95911.38;;;18.57;59.93
69411;BME280;56604;48.652;9.194;2023-06-10T03:53:16;95916.81;;;18.52;59.66
69411;BME280;56604;48.652;9.194;2023-06-10T03:55:41;95918.06;;;18.86;58.76
69411;BME280;56604;48.652;9.194;2023-06-10T03:58:06;95918.75;;;19.09;58.00
69411;BME280;56604;48.652;9.194;2023-06-10T04:00:32;95933.81;;;19.22;57.12
69411;BME280;56604;48.652;9.194;2023-06-10T04:03:10;95930.88;;;19.32;56.83
69411;BME280;56604;48.652;9.194;2023-06-10T04:05:39;95923.34;;;19.87;55.76
69411;BME280;56604;48.652;9.194;2023-06-10T04:08:05;95917.38;;;20.54;54.80
69411;BME280;56604;48.652;9.194;2023-06-10T04:10:32;95922.06;;;21.17;52.32
69411;BME280;56604;48.652;9.194;2023-06-10T04:12:57;95934.22;;;20.84;51.94
69411;BME280;56604;48.652;9.194;2023-06-10T04:15:22;95919.13;;;21.39;50.56
69411;BME280;56604;48.652;9.194;2023-06-10T04:17:47;95914.53;;;21.40;50.05
69411;BME280;56604;48.652;9.194;2023-06-10T04:20:14;95914.59;;;21.73;49.82
69411;BME280;56604;48.652;9.194;2023-06-10T04:22:39;95926.66;;;22.95;47.06
69411;BME280;56604;48.652;9.194;2023-06-10T04:25:05;95929.97;;;23.41;45.87
69411;BME280;56604;48.652;9.194;2023-06-10T04:27:32;95932.66;;;23.41;45.98
69411;BME280;56604;48.652;9.194;2023-06-10T04:29:57;95934.22;;;24.54;43.49
69411;BME280;56604;48.652;9.194;2023-06-10T04:32:23;95933.31;;;25.13;42.27
69411;BME280;56604;48.652;9.194;2023-06-10T04:34:48;95942.44;;;24.61;44.06
69411;BME280;56604;48.652;9.194;2023-06-10T04:37:14;95941.59;;;25.40;41.53
69411;BME280;56604;48.652;9.194;2023-06-10T04:39:39;95946.59;;;26.16;39.97
69411;BME280;56604;48.652;9.194;2023-06-10T04:42:06;95944.50;;;25.16;41.63
69411;BME280;56604;48.652;9.194;2023-06-10T04:44:32;95952.53;;;25.47;40.67
69411;BME280;56604;48.652;9.194;2023-06-10T04:46:57;95946.75;;;25.29;41.43
69411;BME280;56604;48.652;9.194;2023-06-10T04:49:22;95943.53;;;25.59;41.52
69411;BME280;56604;48.652;9.194;2023-06-10T04:51:48;95947.25;;;26.32;39.38
69411;BME280;56604;48.652;9.194;2023-06-10T04:54:13;95945.25;;;25.32;41.15
69411;BME280;56604;48.652;9.194;2023-06-10T04:56:38;95943.75;;;25.70;40.80
69411;BME280;56604;48.652;9.194;2023-06-10T04:59:04;95944.13;;;25.33;41.49
69411;BME280;56604;48.652;9.194;2023-06-10T05:01:29;95945.47;;;25.23;40.81
69411;BME280;56604;48.652;9.194;2023-06-10T05:03:55;95952.06;;;24.02;43.12
69411;BME280;56604;48.652;9.194;2023-06-10T05:06:20;95946.81;;;24.66;42.71
69411;BME280;56604;48.652;9.194;2023-06-10T05:08:47;95944.41;;;25.28;41.33
69411;BME280;56604;48.652;9.194;2023-06-10T05:11:12;95950.09;;;25.42;40.75
69411;BME280;56604;48.652;9.194;2023-06-10T05:13:37;95953.66;;;24.63;42.63
69411;BME280;56604;48.652;9.194;2023-06-10T05:16:05;95960.63;;;24.36;43.63
69411;BME280;56604;48.652;9.194;2023-06-10T05:18:30;95961.13;;;25.53;41.16
69411;BME280;56604;48.652;9.194;2023-06-10T05:20:56;95955.94;;;25.64;40.87
69411;BME280;56604;48.652;9.194;2023-06-10T05:23:21;95960.56;;;25.28;41.74
69411;BME280;56604;48.652;9.194;2023-06-10T05:25:46;95964.97;;;25.55;40.71
69411;BME280;56604;48.652;9.194;2023-06-10T05:28:13;95963.72;;;25.69;40.56
69411;BME280;56604;48.652;9.194;2023-06-10T05:30:38;95964.09;;;25.32;42.38
69411;BME280;56604;48.652;9.194;2023-06-10T05:33:04;95963.69;;;26.04;40.71
69411;BME280;56604;48.652;9.194;2023-06-10T05:35:29;95969.97;;;26.51;39.59
69411;BME280;56604;48.652;9.194;2023-06-10T05:37:55;95969.78;;;26.63;39.92
69411;BME280;56604;48.652;9.194;2023-06-10T05:40:20;95969.06;;;26.46;39.26
69411;BME280;56604;48.652;9.194;2023-06-10T05:42:46;95968.41;;;26.96;39.14
69411;BME280;56604;48.652;9.194;2023-06-10T05:45:11;95969.00;;;26.00;40.46
69411;BME280;56604;48.652;9.194;2023-06-10T05:47:37;95971.28;;;28.23;37.24
69411;BME280;56604;48.652;9.194;2023-06-10T05:50:02;95964.72;;;28.24;37.36
69411;BME280;56604;48.652;9.194;2023-06-10T05:52:32;95973.63;;;28.29;36.96
69411;BME280;56604;48.652;9.194;2023-06-10T05:54:57;95973.25;;;29.08;36.21
69411;BME280;56604;48.652;9.194;2023-06-10T05:57:24;95984.31;;;28.89;35.87
69411;BME280;56604;48.652;9.194;2023-06-10T05:59:49;95982.47;;;27.88;38.86
69411;BME280;56604;48.652;9.194;2023-06-10T06:02:15;95985.53;;;29.02;36.77
69411;BME280;56604;48.652;9.194;2023-06-10T06:04:40;95979.91;;;28.74;37.35
69411;BME280;56604;48.652;9.194;2023-06-10T06:07:06;95975.25;;;29.81;34.81
69411;BME280;56604;48.652;9.194;2023-06-10T06:09:31;95982.69;;;29.29;36.42
69411;BME280;56604;48.652;9.194;2023-06-10T06:11:57;95980.78;;;29.36;35.92
69411;BME280;56604;48.652;9.194;2023-06-10T06:14:22;95980.66;;;29.77;34.06
69411;BME280;56604;48.652;9.194;2023-06-10T06:16:47;95976.84;;;29.96;35.25
69411;BME280;56604;48.652;9.194;2023-06-10T06:19:12;95981.50;;;29.96;35.75
69411;BME280;56604;48.652;9.194;2023-06-10T06:21:38;95986.97;;;28.44;36.29
69411;BME280;56604;48.652;9.194;2023-06-10T06:24:03;95977.91;;;28.30;38.27
69411;BME280;56604;48.652;9.194;2023-06-10T06:26:29;95981.59;;;28.89;36.54
69411;BME280;56604;48.652;9.194;2023-06-10T06:28:54;95991.69;;;28.96;35.77
69411;BME280;56604;48.652;9.194;2023-06-10T06:31:19;95984.72;;;28.16;36.81
69411;BME280;56604;48.652;9.194;2023-06-10T06:33:45;95982.09;;;27.90;37.83
69411;BME280;56604;48.652;9.194;2023-06-10T06:36:10;95991.81;;;29.06;36.29
69411;BME280;56604;48.652;9.194;2023-06-10T06:38:35;95982.91;;;29.68;35.48
69411;BME280;56604;48.652;9.194;2023-06-10T06:41:01;95992.09;;;28.98;35.89
69411;BME280;56604;48.652;9.194;2023-06-10T06:43:29;95990.63;;;28.63;36.95
69411;BME280;56604;48.652;9.194;2023-06-10T06:45:56;95987.44;;;29.46;36.87
69411;BME280;56604;48.652;9.194;2023-06-10T06:48:21;95989.91;;;29.73;35.75
69411;BME280;56604;48.652;9.194;2023-06-10T06:50:47;95995.00;;;29.78;34.88
69411;BME280;56604;48.652;9.194;2023-06-10T06:53:12;95998.03;;;29.10;37.49
69411;BME280;56604;48.652;9.194;2023-06-10T06:55:37;95991.56;;;29.95;35.09
69411;BME280;56604;48.652;9.194;2023-06-10T06:58:03;95995.66;;;30.69;35.17
69411;BME280;56604;48.652;9.194;2023-06-10T07:00:29;96000.84;;;29.91;34.81
69411;BME280;56604;48.652;9.194;2023-06-10T07:02:54;95996.84;;;29.63;35.99
69411;BME280;56604;48.652;9.194;2023-06-10T07:05:20;96006.75;;;29.41;35.86
69411;BME280;56604;48.652;9.194;2023-06-10T07:07:45;96006.72;;;28.48;36.94
69411;BME280;56604;48.652;9.194;2023-06-10T07:10:11;96004.69;;;29.24;37.52
69411;BME280;56604;48.652;9.194;2023-06-10T07:12:36;96009.13;;;28.57;37.59
69411;BME280;56604;48.652;9.194;2023-06-10T07:15:02;96013.13;;;28.70;36.73
69411;BME280;56604;48.652;9.194;2023-06-10T07:17:27;96006.63;;;28.08;38.71
69411;BME280;56604;48.652;9.194;2023-06-10T07:19:52;96002.28;;;27.69;39.70
69411;BME280;56604;48.652;9.194;2023-06-10T07:22:17;96003.66;;;28.50;38.39
69411;BME280;56604;48.652;9.194;2023-06-10T07:24:43;96005.97;;;27.08;40.28
69411;BME280;56604;48.652;9.194;2023-06-10T07:27:09;96000.91;;;28.91;38.93
69411;BME280;56604;48.652;9.194;2023-06-10T07:29:35;95999.53;;;29.04;38.03
69411;BME280;56604;48.652;9.194;2023-06-10T07:32:02;96002.97;;;28.60;38.63
69411;BME280;56604;48.652;9.194;2023-06-10T07:34:27;96010.88;;;28.80;37.53
69411;BME280;56604;48.652;9.194;2023-06-10T07:36:52;96001.94;;;27.74;40.11
69411;BME280;56604;48.652;9.194;2023-06-10T07:39:18;95999.19;;;27.71;39.83
69411;BME280;56604;48.652;9.194;2023-06-10T07:41:43;96000.75;;;27.98;39.87
69411;BME280;56604;48.652;9.194;2023-06-10T07:44:08;95996.75;;;27.89;39.22
69411;BME280;56604;48.652;9.194;2023-06-10T07:46:34;95995.00;;;27.73;39.86
69411;BME280;56604;48.652;9.194;2023-06-10T07:48:59;95991.63;;;28.14;38.37
69411;BME280;56604;48.652;9.194;2023-06-10T07:51:24;95993.13;;;27.51;39.70
69411;BME280;56604;48.652;9.194;2023-06-10T07:53:50;95992.00;;;27.02;40.88
69411;BME280;56604;48.652;9.194;2023-06-10T07:56:15;95998.94;;;27.79;40.10
69411;BME280;56604;48.652;9.194;2023-06-10T07:58:40;95994.16;;;27.69;39.76
69411;BME280;56604;48.652;9.194;2023-06-10T08:01:06;95992.63;;;27.72;40.51
69411;BME280;56604;48.652;9.194;2023-06-10T08:03:32;95992.16;;;27.36;40.14
69411;BME280;56604;48.652;9.194;2023-06-10T08:05:57;95994.69;;;27.52;40.10
69411;BME280;56604;48.652;9.194;2023-06-10T08:08:23;95996.22;;;27.00;40.86
69411;BME280;56604;48.652;9.194;2023-06-10T08:10:48;95990.81;;;26.77;42.33
69411;BME280;56604;48.652;9.194;2023-06-10T08:13:14;95984.94;;;27.17;42.12
69411;BME280;56604;48.652;9.194;2023-06-10T08:15:40;95984.75;;;27.86;42.76
69411;BME280;56604;48.652;9.194;2023-06-10T08:18:05;95984.63;;;27.22;40.56
69411;BME280;56604;48.652;9.194;2023-06-10T08:20:31;95987.13;;;27.61;40.00
69411;BME280;56604;48.652;9.194;2023-06-10T08:22:57;95988.97;;;27.57;40.20
69411;BME280;56604;48.652;9.194;2023-06-10T08:25:22;95988.78;;;27.69;40.27
69411;BME280;56604;48.652;9.194;2023-06-10T08:27:48;95986.72;;;27.32;40.29
69411;BME280;56604;48.652;9.194;2023-06-10T08:30:13;95994.00;;;27.85;39.63
69411;BME280;56604;48.652;9.194;2023-06-10T08:32:39;95982.03;;;27.29;40.59
69411;BME280;56604;48.652;9.194;2023-06-10T08:35:04;95995.03;;;28.07;40.45
69411;BME280;56604;48.652;9.194;2023-06-10T08:37:30;95999.63;;;28.37;39.84
69411;BME280;56604;48.652;9.194;2023-06-10T08:39:55;95997.81;;;28.14;40.17
69411;BME280;56604;48.652;9.194;2023-06-10T08:45:21;96002.66;;;27.98;39.46
69411;BME280;56604;48.652;9.194;2023-06-10T08:47:50;95990.59;;;27.35;41.83
69411;BME280;56604;48.652;9.194;2023-06-10T08:50:18;95989.38;;;26.83;40.54
69411;BME280;56604;48.652;9.194;2023-06-10T08:52:46;95996.72;;;27.09;40.80
69411;BME280;56604;48.652;9.194;2023-06-10T08:55:27;95992.69;;;26.30;41.81
69411;BME280;56604;48.652;9.194;2023-06-10T08:57:54;95985.47;;;27.03;41.17
69411;BME280;56604;48.652;9.194;2023-06-10T09:00:21;95979.44;;;27.36;40.31
69411;BME280;56604;48.652;9.194;2023-06-10T09:02:47;95982.97;;;26.91;42.48
69411;BME280;56604;48.652;9.194;2023-06-10T09:05:13;95986.72;;;27.32;40.63
69411;BME280;56604;48.652;9.194;2023-06-10T09:07:39;95987.41;;;26.37;42.40
69411;BME280;56604;48.652;9.194;2023-06-10T09:10:05;95982.31;;;26.52;42.09
69411;BME280;56604;48.652;9.194;2023-06-10T09:12:33;96005.22;;;26.42;41.49
69411;BME280;56604;48.652;9.194;2023-06-10T09:14:59;95987.66;;;26.09;43.08
69411;BME280;56604;48.652;9.194;2023-06-10T09:17:24;95981.97;;;26.34;41.54
69411;BME280;56604;48.652;9.194;2023-06-10T09:19:50;95985.97;;;26.63;42.09
69411;BME280;56604;48.652;9.194;2023-06-10T09:22:18;95984.13;;;26.47;41.44
69411;BME280;56604;48.652;9.194;2023-06-10T09:24:43;95982.22;;;26.48;41.29
69411;BME280;56604;48.652;9.194;2023-06-10T09:27:09;95984.72;;;26.18;42.41
69411;BME280;56604;48.652;9.194;2023-06-10T09:29:53;95981.81;;;26.69;41.28
69411;BME280;56604;48.652;9.194;2023-06-10T09:32:19;95985.31;;;26.92;40.86
69411;BME280;56604;48.652;9.194;2023-06-10T09:34:45;95979.41;;;27.63;39.24
69411;BME280;56604;48.652;9.194;2023-06-10T09:37:11;95984.22;;;26.74;40.97
69411;BME280;56604;48.652;9.194;2023-06-10T09:39:39;95990.03;;;26.34;41.86
69411;BME280;56604;48.652;9.194;2023-06-10T09:42:25;95980.28;;;26.68;41.18
69411;BME280;56604;48.652;9.194;2023-06-10T09:44:51;95992.91;;;27.10;40.46
69411;BME280;56604;48.652;9.194;2023-06-10T09:47:23;95975.59;;;26.65;41.14
69411;BME280;56604;48.652;9.194;2023-06-10T09:49:49;95981.69;;;27.08;39.77
69411;BME280;56604;48.652;9.194;2023-06-10T09:52:24;95975.13;;;27.32;39.21
69411;BME280;56604;48.652;9.194;2023-06-10T09:54:54;95986.38;;;27.64;40.27
69411;BME280;56604;48.652;9.194;2023-06-10T09:57:24;95968.22;;;27.34;40.52
69411;BME280;56604;48.652;9.194;2023-06-10T09:59:53;95969.47;;;26.25;41.32
69411;BME280;56604;48.652;9.194;2023-06-10T10:02:19;95974.53;;;26.92;41.57
69411;BME280;56604;48.652;9.194;2023-06-10T10:04:44;95969.78;;;27.35;40.33
69411;BME280;56604;48.652;9.194;2023-06-10T10:07:11;95966.75;;;27.41;40.47
69411;BME280;56604;48.652;9.194;2023-06-10T10:09:37;95975.28;;;27.43;40.00
69411;BME280;56604;48.652;9.194;2023-06-10T10:12:10;95973.72;;;27.72;39.82
69411;BME280;56604;48.652;9.194;2023-06-10T10:14:37;95966.56;;;27.26;40.54
69411;BME280;56604;48.652;9.194;2023-06-10T10:17:04;95963.94;;;27.87;38.49
69411;BME280;56604;48.652;9.194;2023-06-10T10:19:32;95957.06;;;27.66;38.06
69411;BME280;56604;48.652;9.194;2023-06-10T10:22:07;95963.00;;;27.75;39.38
69411;BME280;56604;48.652;9.194;2023-06-10T10:24:38;95965.44;;;28.18;39.36
69411;BME280;56604;48.652;9.194;2023-06-10T10:27:21;95955.81;;;27.87;40.28
69411;BME280;56604;48.652;9.194;2023-06-10T10:29:52;95952.94;;;28.06;39.06
69411;BME280;56604;48.652;9.194;2023-06-10T10:32:21;95961.41;;;28.05;39.10
69411;BME280;56604;48.652;9.194;2023-06-10T10:35:07;95962.63;;;27.47;37.73
69411;BME280;56604;48.652;9.194;2023-06-10T10:37:33;95953.16;;;27.33;39.18
69411;BME280;56604;48.652;9.194;2023-06-10T10:40:00;95967.16;;;27.69;38.80
69411;BME280;56604;48.652;9.194;2023-06-10T10:42:26;95963.41;;;28.11;38.60
69411;BME280;56604;48.652;9.194;2023-06-10T10:44:51;95958.72;;;26.95;40.51
69411;BME280;56604;48.652;9.194;2023-06-10T10:47:21;95958.97;;;26.86;40.54
69411;BME280;56604;48.652;9.194;2023-06-10T10:49:49;95961.72;;;26.43;41.42
69411;BME280;56604;48.652;9.194;2023-06-10T10:52:15;95953.56;;;26.40;42.75
69411;BME280;56604;48.652;9.194;2023-06-10T10:54:45;95948.97;;;26.86;41.24
69411;BME280;56604;48.652;9.194;2023-06-10T10:57:21;95947.97;;;26.72;40.83
69411;BME280;56604;48.652;9.194;2023-06-10T10:59:55;95944.16;;;26.30;42.30
69411;BME280;56604;48.652;9.194;2023-06-10T11:02:35;95954.25;;;25.94;42.92
69411;BME280;56604;48.652;9.194;2023-06-10T11:05:04;95948.69;;;26.26;42.35
69411;BME280;56604;48.652;9.194;2023-06-10T11:07:31;95955.09;;;25.98;42.21
69411;BME280;56604;48.652;9.194;2023-06-10T11:10:01;95955.25;;;26.06;41.50
69411;BME280;56604;48.652;9.194;2023-06-10T11:15:11;95946.59;;;26.81;40.38
69411;BME280;56604;48.652;9.194;2023-06-10T11:17:37;95935.38;;;27.06;40.69
69411;BME280;56604;48.652;9.194;2023-06-10T11:20:03;95940.28;;;27.23;40.30
69411;BME280;56604;48.652;9.194;2023-06-10T11:22:28;95944.31;;;27.10;39.11
69411;BME280;56604;48.652;9.194;2023-06-10T11:24:54;95933.38;;;27.26;39.84
69411;BME280;56604;48.652;9.194;2023-06-10T11:27:23;95948.34;;;26.97;39.38
69411;BME280;56604;48.652;9.194;2023-06-10T11:30:17;95942.72;;;26.36;39.29
69411;BME280;56604;48.652;9.194;2023-06-10T11:32:43;95937.66;;;25.92;40.38
69411;BME280;56604;48.652;9.194;2023-06-10T11:35:09;95937.84;;;26.22;40.23
69411;BME280;56604;48.652;9.194;2023-06-10T11:37:35;95933.91;;;26.39;39.25
69411;BME280;56604;48.652;9.194;2023-06-10T11:40:00;95930.22;;;26.71;40.34
69411;BME280;56604;48.652;9.194;2023-06-10T11:42:25;95926.75;;;26.70;38.04
69411;BME280;56604;48.652;9.194;2023-06-10T11:44:52;95924.78;;;26.67;38.65
69411;BME280;56604;48.652;9.194;2023-06-10T11:47:18;95925.16;;;26.92;38.63
69411;BME280;56604;48.652;9.194;2023-06-10T11:49:44;95924.34;;;26.88;38.42
69411;BME280;56604;48.652;9.194;2023-06-10T11:52:10;95924.44;;;26.95;37.81
69411;BME280;56604;48.652;9.194;2023-06-10T11:54:36;95929.00;;;26.91;38.14
69411;BME280;56604;48.652;9.194;2023-06-10T11:57:02;95927.06;;;26.65;37.72
69411;BME280;56604;48.652;9.194;2023-06-10T11:59:29;95924.09;;;26.28;38.67
69411;BME280;56604;48.652;9.194;2023-06-10T12:01:55;95934.47;;;26.06;38.51
69411;BME280;56604;48.652;9.194;2023-06-10T12:04:21;95929.53;;;26.31;39.34
69411;BME280;56604;48.652;9.194;2023-06-10T12:06:48;95913.03;;;26.56;37.69
69411;BME280;56604;48.652;9.194;2023-06-10T12:09:22;95907.03;;;27.16;37.85
69411;BME280;56604;48.652;9.194;2023-06-10T12:11:50;95919.19;;;27.06;36.12
69411;BME280;56604;48.652;9.194;2023-06-10T12:14:16;95911.31;;;26.94;37.56
69411;BME280;56604;48.652;9.194;2023-06-10T12:16:48;95914.59;;;27.33;36.31
69411;BME280;56604;48.652;9.194;2023-06-10T12:19:13;95917.31;;;26.83;36.71
69411;BME280;56604;48.652;9.194;2023-06-10T12:21:39;95908.03;;;26.81;37.26
69411;BME280;56604;48.652;9.194;2023-06-10T12:24:06;95907.56;;;26.75;38.43
69411;BME280;56604;48.652;9.194;2023-06-10T12:26:43;95912.13;;;26.48;37.89
69411;BME280;56604;48.652;9.194;2023-06-10T12:29:16;95916.66;;;26.44;39.25
69411;BME280;56604;48.652;9.194;2023-06-10T12:32:01;95901.13;;;26.83;38.09
69411;BME280;56604;48.652;9.194;2023-06-10T12:34:39;95910.56;;;27.20;37.12
69411;BME280;56604;48.652;9.194;2023-06-10T12:37:12;95907.09;;;27.19;37.83
69411;BME280;56604;48.652;9.194;2023-06-10T12:39:39;95903.66;;;27.52;38.07
69411;BME280;56604;48.652;9.194;2023-06-10T12:42:05;95908.34;;;27.55;37.71
69411;BME280;56604;48.652;9.194;2023-06-10T12:44:35;95908.69;;;27.24;36.68
69411;BME280;56604;48.652;9.194;2023-06-10T12:47:07;95903.38;;;27.31;36.75
69411;BME280;56604;48.652;9.194;2023-06-10T12:49:33;95911.41;;;27.57;37.14
69411;BME280;56604;48.652;9.194;2023-06-10T12:51:58;95903.78;;;27.06;38.06
69411;BME280;56604;48.652;9.194;2023-06-10T12:54:23;95899.69;;;26.89;38.11
69411;BME280;56604;48.652;9.194;2023-06-10T12:56:49;95909.31;;;26.64;38.32
69411;BME280;56604;48.652;9.194;2023-06-10T12:59:14;95900.22;;;26.30;39.47
69411;BME280;56604;48.652;9.194;2023-06-10T13:01:39;95899.09;;;26.50;39.02
69411;BME280;56604;48.652;9.194;2023-06-10T13:04:05;95899.47;;;26.29;38.67
69411;BME280;56604;48.652;9.194;2023-06-10T13:06:34;95902.28;;;26.36;38.90